sim
Sign-in with your pilot id or email,
or register
Callsign
Passwort

Schedule Details

Flight Number: UAE9889 (B)
Departure: Mumbai Chhatrapati Shivaji International Airport (VABB) at 07:25
Arrival: Dubai World Central International Airport (OMDW) at 10:20
Route: Emirates Cargo Schedule. Enter filed route here before submitting Pirep.

Weather Information
Getting current METAR information for VABB 160000Z 00000KT 2100 HZ NSC 24/19 Q1012 NOSIG
Getting current METAR information for OMDW 160000Z 13012KT CAVOK 21/17 Q1015 NOSIG

Schedule Frequency

Route Map